Estación de Río Negro

Ultimos registro cada 15 minutos 59
Estación Fecha / Hora Temperatura Humedad Lluvia Velocidad Dirección Radiación Presion
59 Río Negro 07-05-2026 14:30 8,9 82,9 0 0 131 121,9 1016,7
58 Río Negro 07-05-2026 14:15 8,9 83,5 0 0 150 114,4 1016,7
57 Río Negro 07-05-2026 14:00 9,3 83,5 0 0 239 138,1 1016,7
56 Río Negro 07-05-2026 13:45 9 83,8 0 0 168 151,9 1016,9
55 Río Negro 07-05-2026 13:30 8,9 85,7 0 0 188 228,1 1017
54 Río Negro 07-05-2026 13:15 8,4 85,9 0,2 1 229 156,9 1017,3
53 Río Negro 07-05-2026 13:00 9,8 74,7 0 0,5 233 125,6 1017,3
52 Río Negro 07-05-2026 12:45 10,1 74 0 0,5 282 206,9 1016,9
51 Río Negro 07-05-2026 12:30 10 75 0 1 281 285,6 1016,7
50 Río Negro 07-05-2026 12:15 10,3 72,9 0 1 275 493,1 1016,9
49 Río Negro 07-05-2026 12:00 10 77,5 0 1,5 279 346,9 1017,2
48 Río Negro 07-05-2026 11:45 10 79,5 0 1 285 280,6 1017,3
47 Río Negro 07-05-2026 11:30 9,4 80,6 0 1,5 299 424,4 1017,4
46 Río Negro 07-05-2026 11:15 8,8 81,5 0 1 288 268,1 1017,3
45 Río Negro 07-05-2026 11:00 8,7 84,4 0 1 302 199,4 1017,2
44 Río Negro 07-05-2026 10:45 8,7 82,2 0 0,5 292 210,6 1017,3
43 Río Negro 07-05-2026 10:30 8,4 84,8 0 0,5 275 173,1 1017,5
42 Río Negro 07-05-2026 10:15 8,4 85 0 0 233 175,6 1017,4
41 Río Negro 07-05-2026 10:00 8,4 87,9 0 0,5 274 223,1 1017,6
40 Río Negro 07-05-2026 09:45 7,7 88,1 0 0 291 154,4 1017,6
39 Río Negro 07-05-2026 09:30 7,1 90 0 0 326 155,6 1017,5
38 Río Negro 07-05-2026 09:15 6,9 93,5 0 0 323 196,9 1017,5
37 Río Negro 07-05-2026 09:00 6 97,1 0 0 323 163,1 1017,4
36 Río Negro 07-05-2026 08:45 4,2 97,4 0 0 321 25,6 1017,5
35 Río Negro 07-05-2026 08:30 4,5 97 0 0 321 24,4 1017,4
34 Río Negro 07-05-2026 08:15 4,6 96,4 0 0 321 21,9 1017,2
33 Río Negro 07-05-2026 08:00 4,9 95,7 0 0 303 6,9 1017,3
32 Río Negro 07-05-2026 07:45 4,9 96,2 0 0 288 1,9 1017,4
31 Río Negro 07-05-2026 07:30 4,7 96,4 0 0 338 0,6 1017,3
30 Río Negro 07-05-2026 07:15 5 96,1 0 0 345 0,6 1016,9
29 Río Negro 07-05-2026 07:00 4,4 96,5 0 0 312 0,6 1017,2
28 Río Negro 07-05-2026 06:45 4,9 95,5 0 0 330 0,6 1017
27 Río Negro 07-05-2026 06:30 5,2 95 0 0 343 0,6 1017
26 Río Negro 07-05-2026 06:15 5,6 93,7 0 0 343 0,6 1016,7
25 Río Negro 07-05-2026 06:00 5,9 93,7 0 0 337 0,6 1016,8
24 Río Negro 07-05-2026 05:45 5,9 93,5 0 0 277 0,6 1016,9
23 Río Negro 07-05-2026 05:30 5,8 94,5 0 0 198 0,6 1016,9
22 Río Negro 07-05-2026 05:15 6 92,9 0 0 307 0,6 1016,7
21 Río Negro 07-05-2026 05:00 6,2 91,3 0 0 295 0,6 1016,7
20 Río Negro 07-05-2026 04:45 6,4 90,6 0 0,5 275 0,6 1016,5
19 Río Negro 07-05-2026 04:30 6,4 91,1 0 0 268 0,6 1016,4
18 Río Negro 07-05-2026 04:15 6,4 90,4 0 1 278 0,6 1016,1
17 Río Negro 07-05-2026 04:00 5,9 91,5 0 0 279 0,6 1016
16 Río Negro 07-05-2026 03:45 6,1 89,9 0 0,5 310 0,6 1015,7
15 Río Negro 07-05-2026 03:30 6,4 89,9 0 1 282 0,6 1015,9
14 Río Negro 07-05-2026 03:15 6 90,2 0 0,5 277 0,6 1016
13 Río Negro 07-05-2026 03:00 5,9 87,6 0 1 282 0,6 1015,9
12 Río Negro 07-05-2026 02:45 6,2 85,7 0 0 282 0,6 1015,7
11 Río Negro 07-05-2026 02:30 7,3 82,9 0 1 271 0,6 1015,5
10 Río Negro 07-05-2026 02:15 7,6 82,6 0 2,5 272 0,6 1015,4
9 Río Negro 07-05-2026 02:00 7,6 84,3 0 1,5 271 0,6 1015
8 Río Negro 07-05-2026 01:45 7,9 84,2 0 1,5 271 0,6 1014,9
7 Río Negro 07-05-2026 01:30 8,2 84,1 0 2 272 0,6 1014,5
6 Río Negro 07-05-2026 01:15 8,1 85,8 0 1 285 0,6 1014,6
5 Río Negro 07-05-2026 01:00 8,1 85,6 0 1 288 0,6 1014,3
4 Río Negro 07-05-2026 00:45 8 86,4 0 2,5 272 0,6 1014
3 Río Negro 07-05-2026 00:30 8 86,4 0 2 275 0,6 1013,9
2 Río Negro 07-05-2026 00:15 8,2 87 0 1,5 267 0,6 1013,8
1 Río Negro 07-05-2026 00:00 8,4 88,5 0 2 275 0,6 1013,9